createdAt,value
2024-04-06T00:00:05.303Z,1007.94
2024-04-06T00:01:06.126Z,1007.96
2024-04-06T00:02:06.977Z,1007.97
2024-04-06T00:03:07.780Z,1007.98
2024-04-06T00:04:08.456Z,1007.97
2024-04-06T00:05:09.172Z,1007.96
2024-04-06T00:06:09.855Z,1007.95
2024-04-06T00:07:11.172Z,1007.96
2024-04-06T00:08:16.745Z,1007.96
2024-04-06T00:09:13.290Z,1007.95
2024-04-06T00:10:13.169Z,1007.95
2024-04-06T00:11:13.811Z,1007.96
2024-04-06T00:12:14.534Z,1007.99
2024-04-06T00:13:15.255Z,1008.00
2024-04-06T00:14:16.081Z,1008.01
2024-04-06T00:15:16.776Z,1008.04
2024-04-06T00:16:17.577Z,1008.03
2024-04-06T00:17:18.295Z,1008.04
2024-04-06T00:18:19.057Z,1008.04
2024-04-06T00:19:19.744Z,1008.04
2024-04-06T00:20:21.152Z,1008.02
2024-04-06T00:21:21.364Z,1007.98
2024-04-06T00:22:22.240Z,1007.95
2024-04-06T00:23:22.910Z,1007.93
2024-04-06T00:24:23.612Z,1007.96
2024-04-06T00:25:24.299Z,1007.96
2024-04-06T00:26:25.047Z,1007.95
2024-04-06T00:27:25.750Z,1007.93
2024-04-06T00:28:26.558Z,1007.88
2024-04-06T00:29:27.405Z,1007.85
2024-04-06T00:30:28.105Z,1007.83
2024-04-06T00:31:28.829Z,1007.81
2024-04-06T00:32:29.600Z,1007.80
2024-04-06T00:33:30.219Z,1007.78
2024-04-06T00:34:31.279Z,1007.77
2024-04-06T00:35:31.636Z,1007.78
2024-04-06T00:36:32.442Z,1007.79
2024-04-06T00:37:33.278Z,1007.79
2024-04-06T00:38:34.059Z,1007.79
2024-04-06T00:39:34.781Z,1007.79
2024-04-06T00:40:35.529Z,1007.78
2024-04-06T00:41:36.527Z,1007.80
2024-04-06T00:42:36.819Z,1007.81
2024-04-06T00:43:37.670Z,1007.80
2024-04-06T00:44:38.536Z,1007.79
2024-04-06T00:45:39.219Z,1007.80
2024-04-06T00:46:39.961Z,1007.81
2024-04-06T00:47:40.623Z,1007.78
2024-04-06T00:48:41.367Z,1007.78
2024-04-06T00:49:42.185Z,1007.75
2024-04-06T00:50:42.564Z,1007.74
2024-04-06T00:51:43.296Z,1007.75
2024-04-06T00:52:43.955Z,1007.77
2024-04-06T00:53:44.808Z,1007.80
2024-04-06T00:54:45.522Z,1007.83
2024-04-06T00:55:46.225Z,1007.82
2024-04-06T00:56:46.906Z,1007.84
2024-04-06T00:57:47.656Z,1007.85
2024-04-06T00:58:48.467Z,1007.86
2024-04-06T00:59:49.298Z,1007.86
2024-04-06T01:00:50.066Z,1007.85
2024-04-06T01:02:00.464Z,1007.80
2024-04-06T01:02:51.520Z,1007.80
2024-04-06T01:03:52.601Z,1007.82
2024-04-06T01:04:52.968Z,1007.84
2024-04-06T01:05:53.676Z,1007.84
2024-04-06T01:06:54.359Z,1007.82
2024-04-06T01:07:55.168Z,1007.81
2024-04-06T01:08:55.857Z,1007.79
2024-04-06T01:09:56.574Z,1007.77
2024-04-06T01:10:57.369Z,1007.75
2024-04-06T01:11:58.039Z,1007.76
2024-04-06T01:12:58.996Z,1007.79
2024-04-06T01:13:59.871Z,1007.78
2024-04-06T01:15:00.749Z,1007.75
2024-04-06T01:16:01.392Z,1007.79
2024-04-06T01:17:02.129Z,1007.79
2024-04-06T01:18:02.850Z,1007.79
2024-04-06T01:19:03.727Z,1007.81
2024-04-06T01:20:04.526Z,1007.82
2024-04-06T01:21:05.215Z,1007.80
2024-04-06T01:22:06.087Z,1007.79
2024-04-06T01:23:06.838Z,1007.77
2024-04-06T01:24:07.646Z,1007.82
2024-04-06T01:25:08.331Z,1007.85
2024-04-06T01:26:09.663Z,1007.87
2024-04-06T01:27:09.897Z,1007.86
2024-04-06T01:28:10.888Z,1007.84
2024-04-06T01:29:11.307Z,1007.85
2024-04-06T01:30:12.143Z,1007.84
2024-04-06T01:31:12.970Z,1007.85
2024-04-06T01:32:13.705Z,1007.85
2024-04-06T01:33:14.385Z,1007.85
2024-04-06T01:34:15.167Z,1007.85
2024-04-06T01:35:16.177Z,1007.86
2024-04-06T01:36:16.525Z,1007.83
2024-04-06T01:37:17.206Z,1007.81
2024-04-06T01:38:18.010Z,1007.80
2024-04-06T01:39:18.723Z,1007.81
2024-04-06T01:40:19.446Z,1007.78
2024-04-06T01:41:20.284Z,1007.74
2024-04-06T01:42:21.675Z,1007.68
2024-04-06T01:43:21.851Z,1007.67
2024-04-06T01:44:22.569Z,1007.65
2024-04-06T01:45:23.272Z,1007.64
2024-04-06T01:46:24.106Z,1007.63
2024-04-06T01:47:24.860Z,1007.61
2024-04-06T01:48:25.523Z,1007.60
2024-04-06T01:49:26.322Z,1007.62
2024-04-06T01:50:27.216Z,1007.64
2024-04-06T01:51:27.888Z,1007.66
2024-04-06T01:52:28.743Z,1007.67
2024-04-06T01:53:29.634Z,1007.69
2024-04-06T01:54:30.450Z,1007.71
2024-04-06T01:55:31.156Z,1007.74
2024-04-06T01:56:32.256Z,1007.75
2024-04-06T01:57:32.650Z,1007.73
2024-04-06T01:58:33.544Z,1007.69
2024-04-06T01:59:34.166Z,1007.69
2024-04-06T02:00:34.431Z,1007.70
2024-04-06T02:01:35.187Z,1007.70
2024-04-06T02:02:35.958Z,1007.71
2024-04-06T02:03:36.856Z,1007.71
2024-04-06T02:04:37.632Z,1007.71
2024-04-06T02:05:38.271Z,1007.72
2024-04-06T02:06:38.969Z,1007.72
2024-04-06T02:07:39.680Z,1007.72
2024-04-06T02:08:40.411Z,1007.71
2024-04-06T02:09:41.203Z,1007.70
2024-04-06T02:10:41.902Z,1007.68
2024-04-06T02:11:42.628Z,1007.68
2024-04-06T02:12:43.386Z,1007.65
2024-04-06T02:13:44.092Z,1007.65
2024-04-06T02:14:44.795Z,1007.69
2024-04-06T02:15:45.500Z,1007.72
2024-04-06T02:16:46.165Z,1007.75
2024-04-06T02:17:46.936Z,1007.75
2024-04-06T02:18:47.890Z,1007.76
2024-04-06T02:19:48.741Z,1007.74
2024-04-06T02:20:49.384Z,1007.73
2024-04-06T02:21:50.223Z,1007.70
2024-04-06T02:22:51.256Z,1007.69
2024-04-06T02:23:51.990Z,1007.70
2024-04-06T02:24:52.694Z,1007.68
2024-04-06T02:25:53.782Z,1007.67
2024-04-06T02:26:54.573Z,1007.68
2024-04-06T02:27:55.461Z,1007.66
2024-04-06T02:28:56.328Z,1007.67
2024-04-06T02:29:57.009Z,1007.67
2024-04-06T02:30:57.686Z,1007.67
2024-04-06T02:31:58.541Z,1007.66
2024-04-06T02:32:59.394Z,1007.67
2024-04-06T02:34:00.243Z,1007.68
2024-04-06T02:35:01.086Z,1007.68
2024-04-06T02:36:01.899Z,1007.68
2024-04-06T02:37:02.618Z,1007.64
2024-04-06T02:38:03.365Z,1007.62
2024-04-06T02:39:04.052Z,1007.62
2024-04-06T02:40:04.806Z,1007.62
2024-04-06T02:41:05.621Z,1007.63
2024-04-06T02:42:06.339Z,1007.61
2024-04-06T02:43:07.152Z,1007.60
2024-04-06T02:44:07.881Z,1007.59
2024-04-06T02:45:08.562Z,1007.59
2024-04-06T02:46:09.386Z,1007.57
2024-04-06T02:47:10.241Z,1007.59
2024-04-06T02:48:11.042Z,1007.61
2024-04-06T02:49:11.744Z,1007.62
2024-04-06T02:50:12.444Z,1007.59
2024-04-06T02:51:13.170Z,1007.57
2024-04-06T02:52:13.978Z,1007.52
2024-04-06T02:53:14.840Z,1007.50
2024-04-06T02:54:15.552Z,1007.49
2024-04-06T02:55:16.381Z,1007.47
2024-04-06T02:56:17.064Z,1007.43
2024-04-06T02:57:17.752Z,1007.42
2024-04-06T02:58:18.590Z,1007.41
2024-04-06T02:59:19.377Z,1007.41
2024-04-06T03:00:20.190Z,1007.39
2024-04-06T03:01:21.016Z,1007.38
2024-04-06T03:02:21.952Z,1007.37
2024-04-06T03:03:22.768Z,1007.36
2024-04-06T03:04:23.665Z,1007.33
2024-04-06T03:05:24.426Z,1007.31
2024-04-06T03:06:25.250Z,1007.28
2024-04-06T03:07:26.122Z,1007.33
2024-04-06T03:08:26.957Z,1007.35
2024-04-06T03:09:27.729Z,1007.39
2024-04-06T03:10:28.466Z,1007.41
2024-04-06T03:11:29.202Z,1007.39
2024-04-06T03:12:30.687Z,1007.35
2024-04-06T03:13:30.933Z,1007.31
2024-04-06T03:14:31.738Z,1007.28
2024-04-06T03:15:32.746Z,1007.33
2024-04-06T03:16:33.056Z,1007.37
2024-04-06T03:17:34.121Z,1007.40
2024-04-06T03:18:34.574Z,1007.43
2024-04-06T03:19:35.261Z,1007.45
2024-04-06T03:20:35.975Z,1007.49
2024-04-06T03:21:36.685Z,1007.54
2024-04-06T03:22:37.496Z,1007.59
2024-04-06T03:23:38.353Z,1007.68
2024-04-06T03:24:39.044Z,1007.73
2024-04-06T03:25:39.792Z,1007.79
2024-04-06T03:26:40.552Z,1007.79
2024-04-06T03:27:41.671Z,1007.78
2024-04-06T03:28:42.171Z,1007.75
2024-04-06T03:29:42.870Z,1007.73
2024-04-06T03:30:43.715Z,1007.75
2024-04-06T03:31:44.398Z,1007.71
2024-04-06T03:32:45.081Z,1007.66
2024-04-06T03:33:45.929Z,1007.62
2024-04-06T03:34:46.602Z,1007.56
2024-04-06T03:35:47.437Z,1007.55
2024-04-06T03:36:48.255Z,1007.53
2024-04-06T03:37:49.094Z,1007.51
2024-04-06T03:38:49.806Z,1007.48
2024-04-06T03:39:50.636Z,1007.48
2024-04-06T03:40:51.417Z,1007.43
2024-04-06T03:41:52.719Z,1007.45
2024-04-06T03:42:52.891Z,1007.46
2024-04-06T03:43:53.808Z,1007.49
2024-04-06T03:44:54.577Z,1007.48
2024-04-06T03:45:55.293Z,1007.47
2024-04-06T03:46:56.031Z,1007.46
2024-04-06T03:47:56.844Z,1007.45
2024-04-06T03:48:57.538Z,1007.48
2024-04-06T03:49:58.246Z,1007.49
2024-04-06T03:50:58.960Z,1007.52
2024-04-06T03:51:59.649Z,1007.52
2024-04-06T03:53:00.490Z,1007.53
2024-04-06T03:54:01.281Z,1007.52
2024-04-06T03:55:02.102Z,1007.50
2024-04-06T03:56:02.809Z,1007.49
2024-04-06T03:57:03.519Z,1007.48
2024-04-06T03:58:04.381Z,1007.44
2024-04-06T03:59:05.203Z,1007.45
2024-04-06T04:00:05.916Z,1007.43
2024-04-06T04:01:06.647Z,1007.44
2024-04-06T04:02:07.525Z,1007.45
2024-04-06T04:03:08.300Z,1007.44
2024-04-06T04:04:08.993Z,1007.46
2024-04-06T04:05:09.832Z,1007.45
2024-04-06T04:06:10.539Z,1007.45
2024-04-06T04:07:11.225Z,1007.46
2024-04-06T04:08:12.109Z,1007.45
2024-04-06T04:09:12.930Z,1007.40
2024-04-06T04:10:13.650Z,1007.37
2024-04-06T04:11:14.327Z,1007.39
2024-04-06T04:12:15.150Z,1007.35
2024-04-06T04:13:15.929Z,1007.32
2024-04-06T04:14:16.665Z,1007.31
2024-04-06T04:15:17.359Z,1007.31
2024-04-06T04:16:18.043Z,1007.26
2024-04-06T04:17:18.727Z,1007.29
2024-04-06T04:18:19.384Z,1007.28
2024-04-06T04:19:20.117Z,1007.26
2024-04-06T04:20:20.798Z,1007.30
2024-04-06T04:21:21.585Z,1007.33
2024-04-06T04:22:22.321Z,1007.39
2024-04-06T04:23:22.926Z,1007.42
2024-04-06T04:24:23.637Z,1007.44
2024-04-06T04:25:24.235Z,1007.44
2024-04-06T04:26:24.852Z,1007.43
2024-04-06T04:27:25.638Z,1007.44
2024-04-06T04:28:26.314Z,1007.43
2024-04-06T04:29:26.883Z,1007.45
2024-04-06T04:30:27.451Z,1007.45
2024-04-06T04:31:28.081Z,1007.44
2024-04-06T04:32:28.840Z,1007.41
2024-04-06T04:33:29.428Z,1007.41
2024-04-06T04:34:30.000Z,1007.40
2024-04-06T04:35:30.805Z,1007.42
2024-04-06T04:36:31.488Z,1007.43
2024-04-06T04:37:32.299Z,1007.42
2024-04-06T04:38:32.918Z,1007.43
2024-04-06T04:39:33.473Z,1007.44
2024-04-06T04:40:34.060Z,1007.47
2024-04-06T04:41:34.950Z,1007.48
2024-04-06T04:42:35.200Z,1007.45
2024-04-06T04:43:35.902Z,1007.43
2024-04-06T04:44:41.225Z,1007.44
2024-04-06T04:45:37.084Z,1007.45
2024-04-06T04:46:37.691Z,1007.43
2024-04-06T04:47:38.329Z,1007.41
2024-04-06T04:48:38.921Z,1007.40
2024-04-06T04:49:39.744Z,1007.39
2024-04-06T04:50:41.398Z,1007.37
2024-04-06T04:51:43.846Z,1007.36
2024-04-06T04:52:44.424Z,1007.36
2024-04-06T04:53:43.455Z,1007.37
2024-04-06T04:54:46.534Z,1007.35
2024-04-06T04:55:46.189Z,1007.34
2024-04-06T04:56:48.351Z,1007.32
2024-04-06T04:57:47.824Z,1007.32
2024-04-06T04:58:48.441Z,1007.28
2024-04-06T04:59:48.190Z,1007.25
2024-04-06T05:00:47.818Z,1007.24
2024-04-06T05:01:48.406Z,1007.27
2024-04-06T05:02:48.975Z,1007.22
2024-04-06T05:03:49.704Z,1007.21
2024-04-06T05:04:50.406Z,1007.21
2024-04-06T05:05:51.007Z,1007.21
2024-04-06T05:06:51.618Z,1007.19
2024-04-06T05:07:52.260Z,1007.20
2024-04-06T05:08:52.851Z,1007.22
2024-04-06T05:09:53.404Z,1007.24
2024-04-06T05:10:54.056Z,1007.25
2024-04-06T05:11:54.769Z,1007.26
2024-04-06T05:12:55.493Z,1007.25
2024-04-06T05:13:56.075Z,1007.26
2024-04-06T05:14:56.923Z,1007.28
2024-04-06T05:15:57.640Z,1007.31
2024-04-06T05:16:58.320Z,1007.33
2024-04-06T05:17:59.025Z,1007.34
2024-04-06T05:18:59.641Z,1007.36
2024-04-06T05:20:00.278Z,1007.37
2024-04-06T05:21:01.000Z,1007.38
2024-04-06T05:22:01.666Z,1007.37
2024-04-06T05:23:02.279Z,1007.37
2024-04-06T05:24:03.133Z,1007.40
2024-04-06T05:25:03.818Z,1007.40
2024-04-06T05:26:04.541Z,1007.40
2024-04-06T05:27:05.112Z,1007.41
2024-04-06T05:28:05.735Z,1007.44
2024-04-06T05:29:06.396Z,1007.44
2024-04-06T05:30:07.073Z,1007.46
2024-04-06T05:31:07.780Z,1007.47
2024-04-06T05:32:08.375Z,1007.48
2024-04-06T05:33:09.167Z,1007.48
2024-04-06T05:34:09.956Z,1007.48
2024-04-06T05:35:10.685Z,1007.45
2024-04-06T05:36:11.277Z,1007.45
2024-04-06T05:37:12.722Z,1007.45
2024-04-06T05:38:12.826Z,1007.43
2024-04-06T05:39:13.443Z,1007.40
2024-04-06T05:40:14.132Z,1007.41
2024-04-06T05:41:14.718Z,1007.41
2024-04-06T05:42:22.543Z,1007.41
2024-04-06T05:43:16.325Z,1007.44
2024-04-06T05:44:16.946Z,1007.43
2024-04-06T05:45:19.024Z,1007.41
2024-04-06T05:46:19.001Z,1007.38
2024-04-06T05:47:20.074Z,1007.37
2024-04-06T05:48:19.646Z,1007.36
2024-04-06T05:49:20.259Z,1007.38
2024-04-06T05:50:20.969Z,1007.36
2024-04-06T05:51:21.720Z,1007.35
2024-04-06T05:52:22.338Z,1007.36
2024-04-06T05:53:23.063Z,1007.35
2024-04-06T05:54:23.692Z,1007.32
2024-04-06T05:55:24.412Z,1007.31
2024-04-06T05:56:25.092Z,1007.29
2024-04-06T05:57:25.738Z,1007.30
2024-04-06T05:58:26.400Z,1007.25
2024-04-06T05:59:27.090Z,1007.25
2024-04-06T06:00:27.681Z,1007.26
2024-04-06T06:01:28.355Z,1007.24
2024-04-06T06:02:29.091Z,1007.22
2024-04-06T06:03:29.802Z,1007.21
2024-04-06T06:04:30.440Z,1007.18
2024-04-06T06:05:31.250Z,1007.16
2024-04-06T06:06:31.793Z,1007.16
2024-04-06T06:07:32.513Z,1007.16
2024-04-06T06:08:33.275Z,1007.17
2024-04-06T06:09:33.848Z,1007.21
2024-04-06T06:10:35.312Z,1007.25
2024-04-06T06:11:35.508Z,1007.29
2024-04-06T06:12:36.205Z,1007.29
2024-04-06T06:13:36.819Z,1007.30
2024-04-06T06:14:37.466Z,1007.28
2024-04-06T06:15:37.988Z,1007.32
2024-04-06T06:16:38.740Z,1007.37
2024-04-06T06:17:39.359Z,1007.39
2024-04-06T06:18:40.765Z,1007.45
2024-04-06T06:19:40.522Z,1007.44
2024-04-06T06:20:41.163Z,1007.44
2024-04-06T06:21:44.707Z,1007.45
2024-04-06T06:22:42.418Z,1007.46
2024-04-06T06:23:43.057Z,1007.45
2024-04-06T06:24:43.695Z,1007.48
2024-04-06T06:25:44.267Z,1007.49
2024-04-06T06:26:45.038Z,1007.47
2024-04-06T06:27:47.396Z,1007.47
2024-04-06T06:28:46.251Z,1007.50
2024-04-06T06:29:46.962Z,1007.44
2024-04-06T06:30:47.675Z,1007.45
2024-04-06T06:31:48.411Z,1007.42
2024-04-06T06:32:49.117Z,1007.50
2024-04-06T06:33:49.736Z,1007.45
2024-04-06T06:34:50.318Z,1007.42
2024-04-06T06:37:53.543Z,1007.41
2024-04-06T06:40:54.363Z,1007.51
2024-04-06T06:41:54.946Z,1007.48
2024-04-06T06:42:55.719Z,1007.43
2024-04-06T06:43:56.476Z,1007.42
2024-04-06T06:44:57.089Z,1007.44
2024-04-06T06:45:57.770Z,1007.47
2024-04-06T06:46:58.344Z,1007.47
2024-04-06T06:47:58.981Z,1007.52
2024-04-06T06:48:59.614Z,1007.55
2024-04-06T06:50:00.295Z,1007.57
2024-04-06T06:51:01.025Z,1007.53
2024-04-06T06:52:01.656Z,1007.52
2024-04-06T06:53:02.396Z,1007.52
2024-04-06T06:54:03.014Z,1007.51
2024-04-06T06:55:03.613Z,1007.49
2024-04-06T06:56:04.194Z,1007.47
2024-04-06T06:57:04.777Z,1007.45
2024-04-06T06:58:05.357Z,1007.39
2024-04-06T06:59:06.081Z,1007.39
2024-04-06T07:01:07.266Z,1007.34
2024-04-06T07:02:07.872Z,1007.30
2024-04-06T07:03:09.310Z,1007.30
2024-04-06T07:04:09.156Z,1007.30
2024-04-06T07:05:09.718Z,1007.34
2024-04-06T07:06:10.362Z,1007.28
2024-04-06T07:07:11.030Z,1007.29
2024-04-06T07:08:11.679Z,1007.30
2024-04-06T07:09:12.401Z,1007.33
2024-04-06T07:10:13.203Z,1007.30
2024-04-06T07:11:13.922Z,1007.36
2024-04-06T07:12:14.479Z,1007.26
2024-04-06T07:13:15.224Z,1007.33
2024-04-06T07:14:15.928Z,1007.32
2024-04-06T07:15:16.623Z,1007.35
2024-04-06T07:16:17.289Z,1007.37
2024-04-06T07:17:17.896Z,1007.37
2024-04-06T07:18:18.619Z,1007.43
2024-04-06T07:19:19.154Z,1007.42
2024-04-06T07:20:19.878Z,1007.37
2024-04-06T07:21:20.631Z,1007.40
2024-04-06T07:22:21.198Z,1007.40
2024-04-06T07:23:21.780Z,1007.37
2024-04-06T07:24:22.416Z,1007.39
2024-04-06T07:25:23.146Z,1007.34
2024-04-06T07:26:23.913Z,1007.34
2024-04-06T07:27:24.624Z,1007.35
2024-04-06T07:28:25.198Z,1007.33
2024-04-06T07:29:25.940Z,1007.31
2024-04-06T07:30:26.576Z,1007.34
2024-04-06T07:31:27.177Z,1007.31
2024-04-06T07:32:27.911Z,1007.26
2024-04-06T07:33:28.493Z,1007.28
2024-04-06T07:34:29.088Z,1007.28
2024-04-06T07:35:29.672Z,1007.35
2024-04-06T07:36:30.263Z,1007.32
2024-04-06T07:37:30.971Z,1007.34
2024-04-06T07:38:31.707Z,1007.34
2024-04-06T07:39:32.426Z,1007.35
2024-04-06T07:40:33.006Z,1007.34
2024-04-06T07:41:33.592Z,1007.30
2024-04-06T07:42:34.177Z,1007.33
2024-04-06T07:43:34.774Z,1007.36
2024-04-06T07:44:35.399Z,1007.33
2024-04-06T07:45:36.215Z,1007.31
2024-04-06T07:46:37.293Z,1007.29
2024-04-06T07:47:37.461Z,1007.28
2024-04-06T07:48:38.211Z,1007.29
2024-04-06T07:49:38.973Z,1007.31
2024-04-06T07:50:39.515Z,1007.28
2024-04-06T07:51:40.237Z,1007.29
2024-04-06T07:52:40.991Z,1007.25
2024-04-06T07:53:41.701Z,1007.24
2024-04-06T07:54:42.285Z,1007.29
2024-04-06T07:55:42.995Z,1007.26
2024-04-06T07:56:43.593Z,1007.23
2024-04-06T07:57:44.245Z,1007.20
2024-04-06T07:58:45.036Z,1007.21
2024-04-06T07:59:46.077Z,1007.28
2024-04-06T08:00:46.414Z,1007.23
2024-04-06T08:01:47.023Z,1007.19
2024-04-06T08:02:47.756Z,1007.20
2024-04-06T08:03:48.460Z,1007.25
2024-04-06T08:04:49.174Z,1007.22
2024-04-06T08:05:49.956Z,1007.20
2024-04-06T08:06:50.666Z,1007.20
2024-04-06T08:07:51.398Z,1007.15
2024-04-06T08:08:51.960Z,1007.19
2024-04-06T08:09:52.686Z,1007.19
2024-04-06T08:10:53.322Z,1007.19
2024-04-06T08:11:54.046Z,1007.22
2024-04-06T08:12:54.724Z,1007.21
2024-04-06T08:13:55.478Z,1007.18
2024-04-06T08:14:56.310Z,1007.21
2024-04-06T08:15:57.062Z,1007.16
2024-04-06T08:16:58.773Z,1007.14
2024-04-06T08:17:58.486Z,1007.09
2024-04-06T08:18:59.105Z,1007.09
2024-04-06T08:19:59.821Z,1007.10
2024-04-06T08:21:00.563Z,1007.06
2024-04-06T08:22:01.171Z,1007.04
2024-04-06T08:23:01.754Z,1007.05
2024-04-06T08:24:02.503Z,1007.04
2024-04-06T08:25:03.261Z,1007.00
2024-04-06T08:26:05.001Z,1007.01
2024-04-06T08:27:04.571Z,1007.00
2024-04-06T08:28:05.151Z,1007.00
2024-04-06T08:29:05.812Z,1006.99
2024-04-06T08:30:06.525Z,1007.01
2024-04-06T08:31:07.260Z,1006.99
2024-04-06T08:32:07.815Z,1007.04
2024-04-06T08:33:09.178Z,1007.04
2024-04-06T08:34:09.026Z,1007.06
2024-04-06T08:35:09.637Z,1007.02
2024-04-06T08:36:10.335Z,1007.03
2024-04-06T08:37:10.974Z,1006.94
2024-04-06T08:38:11.651Z,1006.98
2024-04-06T08:39:12.410Z,1007.01
2024-04-06T08:40:13.160Z,1006.96
2024-04-06T08:41:13.818Z,1006.93
2024-04-06T08:42:14.439Z,1006.90
2024-04-06T08:43:15.142Z,1006.90
2024-04-06T08:44:15.736Z,1006.88
2024-04-06T08:45:16.458Z,1006.83
2024-04-06T08:46:17.096Z,1006.86
2024-04-06T08:47:17.644Z,1006.85
2024-04-06T08:48:18.239Z,1006.83
2024-04-06T08:49:18.859Z,1006.82
2024-04-06T08:50:21.285Z,1006.80
2024-04-06T08:51:20.115Z,1006.76
2024-04-06T08:52:20.829Z,1006.76
2024-04-06T08:53:21.649Z,1006.74
2024-04-06T08:54:22.366Z,1006.73
2024-04-06T08:55:23.100Z,1006.74
2024-04-06T08:56:23.755Z,1006.71
2024-04-06T08:57:24.326Z,1006.69
2024-04-06T08:58:24.936Z,1006.73
2024-04-06T08:59:25.762Z,1006.69
2024-04-06T09:00:26.338Z,1006.71
2024-04-06T09:01:26.913Z,1006.73
2024-04-06T09:02:27.525Z,1006.66
2024-04-06T09:03:28.259Z,1006.71
2024-04-06T09:04:28.857Z,1006.72
2024-04-06T09:05:29.460Z,1006.72
2024-04-06T09:06:30.235Z,1006.76
2024-04-06T09:07:30.873Z,1006.74
2024-04-06T09:08:31.497Z,1006.73
2024-04-06T09:09:32.169Z,1006.73
2024-04-06T09:10:32.761Z,1006.65
2024-04-06T09:11:33.347Z,1006.70
2024-04-06T09:12:33.953Z,1006.65
2024-04-06T09:13:34.663Z,1006.65
2024-04-06T09:14:35.370Z,1006.64
2024-04-06T09:15:36.228Z,1006.65
2024-04-06T09:16:36.803Z,1006.66
2024-04-06T09:17:37.457Z,1006.66
2024-04-06T09:18:38.889Z,1006.67
2024-04-06T09:19:38.575Z,1006.69
2024-04-06T09:20:39.379Z,1006.68
2024-04-06T09:21:40.002Z,1006.73
2024-04-06T09:22:40.724Z,1006.63
2024-04-06T09:23:41.303Z,1006.64
2024-04-06T09:24:49.412Z,1006.68
2024-04-06T09:25:42.521Z,1006.66
2024-04-06T09:26:43.072Z,1006.72
2024-04-06T09:27:43.654Z,1006.75
2024-04-06T09:28:44.227Z,1006.76
2024-04-06T09:29:45.051Z,1006.81
2024-04-06T09:30:45.670Z,1006.85
2024-04-06T09:31:46.229Z,1006.77
2024-04-06T09:32:46.852Z,1006.85
2024-04-06T09:33:47.546Z,1006.78
2024-04-06T09:34:48.098Z,1006.77
2024-04-06T09:35:48.863Z,1006.66
2024-04-06T09:36:49.573Z,1006.71
2024-04-06T09:37:50.278Z,1006.69
2024-04-06T09:38:50.852Z,1006.62
2024-04-06T09:39:51.476Z,1006.61
2024-04-06T09:40:52.046Z,1006.60
2024-04-06T09:41:52.638Z,1006.60
2024-04-06T09:42:53.219Z,1006.57
2024-04-06T09:43:53.834Z,1006.57
2024-04-06T09:44:54.599Z,1006.53
2024-04-06T09:45:55.308Z,1006.52
2024-04-06T09:46:55.905Z,1006.47
2024-04-06T09:47:56.474Z,1006.51
2024-04-06T09:48:57.096Z,1006.47
2024-04-06T09:49:57.784Z,1006.44
2024-04-06T09:50:58.400Z,1006.42
2024-04-06T09:51:58.981Z,1006.39
2024-04-06T09:52:59.566Z,1006.33
2024-04-06T09:54:00.344Z,1006.36
2024-04-06T09:55:00.916Z,1006.24
2024-04-06T09:56:01.492Z,1006.20
2024-04-06T09:57:02.065Z,1006.19
2024-04-06T09:58:02.703Z,1006.17
2024-04-06T09:59:03.308Z,1006.14
2024-04-06T10:00:03.908Z,1006.16
2024-04-06T10:01:04.623Z,1006.18
2024-04-06T10:02:05.255Z,1006.25
2024-04-06T10:03:05.842Z,1006.19
2024-04-06T10:04:06.422Z,1006.22
2024-04-06T10:05:07.214Z,1006.23
2024-04-06T10:06:07.768Z,1006.16
2024-04-06T10:07:08.349Z,1006.17
2024-04-06T10:08:08.914Z,1006.22
2024-04-06T10:09:09.500Z,1006.12
2024-04-06T10:10:10.145Z,1006.17
2024-04-06T10:11:10.657Z,1006.15
2024-04-06T10:12:11.301Z,1006.18
2024-04-06T10:13:11.907Z,1006.18
2024-04-06T10:14:12.589Z,1006.21
2024-04-06T10:15:13.072Z,1006.19
2024-04-06T10:16:13.623Z,1006.24
2024-04-06T10:17:14.185Z,1006.21
2024-04-06T10:18:14.856Z,1006.19
2024-04-06T10:19:15.399Z,1006.17
2024-04-06T10:20:15.949Z,1006.18
2024-04-06T10:21:16.581Z,1006.11
2024-04-06T10:22:17.171Z,1006.07
2024-04-06T10:23:17.734Z,1006.12
2024-04-06T10:24:18.317Z,1006.03
2024-04-06T10:25:18.951Z,1006.08
2024-04-06T10:26:19.560Z,1006.00
2024-04-06T10:27:20.161Z,1006.10
2024-04-06T10:28:20.908Z,1005.97
2024-04-06T10:29:21.571Z,1005.94
2024-04-06T10:30:22.226Z,1005.88
2024-04-06T10:31:32.024Z,1005.94
2024-04-06T10:32:23.673Z,1005.81
2024-04-06T10:33:24.397Z,1005.86
2024-04-06T10:34:27.426Z,1005.84
2024-04-06T10:35:25.580Z,1005.93
2024-04-06T10:36:26.168Z,1005.82
2024-04-06T10:37:26.788Z,1005.84
2024-04-06T10:38:27.369Z,1005.96
2024-04-06T10:39:27.974Z,1005.93
2024-04-06T10:40:28.650Z,1005.93
2024-04-06T10:41:29.275Z,1005.86
2024-04-06T10:42:29.882Z,1005.86
2024-04-06T10:43:30.608Z,1005.87
2024-04-06T10:44:31.174Z,1005.88
2024-04-06T10:45:31.770Z,1005.85
2024-04-06T10:46:32.337Z,1005.81
2024-04-06T10:47:32.934Z,1005.89
2024-04-06T10:48:33.492Z,1005.87
2024-04-06T10:49:34.059Z,1005.92
2024-04-06T10:50:34.678Z,1005.89
2024-04-06T10:51:35.467Z,1005.97
2024-04-06T10:52:36.191Z,1005.93
2024-04-06T10:53:36.750Z,1005.92
2024-04-06T10:54:39.031Z,1005.91
2024-04-06T10:55:37.968Z,1005.89
2024-04-06T10:56:38.548Z,1005.92
2024-04-06T10:57:39.132Z,1005.86
2024-04-06T10:58:39.712Z,1005.91
2024-04-06T10:59:40.373Z,1005.90
2024-04-06T11:00:40.971Z,1005.89
2024-04-06T11:01:41.513Z,1005.82
2024-04-06T11:02:42.077Z,1005.85
2024-04-06T11:03:42.650Z,1005.80
2024-04-06T11:04:43.289Z,1005.84
2024-04-06T11:05:43.864Z,1005.79
2024-04-06T11:06:44.498Z,1005.79
2024-04-06T11:07:45.035Z,1005.82
2024-04-06T11:08:45.606Z,1005.85
2024-04-06T11:09:46.204Z,1005.82
2024-04-06T11:10:46.787Z,1005.80
2024-04-06T11:11:47.370Z,1005.81
2024-04-06T11:12:48.072Z,1005.76
2024-04-06T11:13:48.668Z,1005.75
2024-04-06T11:14:49.262Z,1005.73
2024-04-06T11:15:49.855Z,1005.67
2024-04-06T11:16:50.586Z,1005.62
2024-04-06T11:17:51.155Z,1005.61
2024-04-06T11:18:51.755Z,1005.60
2024-04-06T11:19:52.360Z,1005.61
2024-04-06T11:20:52.964Z,1005.59
2024-04-06T11:21:53.509Z,1005.52
2024-04-06T11:22:54.091Z,1005.54
2024-04-06T11:23:54.704Z,1005.51
2024-04-06T11:24:55.275Z,1005.52
2024-04-06T11:25:55.860Z,1005.45
2024-04-06T11:26:56.429Z,1005.50
2024-04-06T11:27:57.156Z,1005.51
2024-04-06T11:28:57.931Z,1005.54
2024-04-06T11:29:59.381Z,1005.54
2024-04-06T11:30:59.075Z,1005.50
2024-04-06T11:31:59.654Z,1005.50
2024-04-06T11:33:00.465Z,1005.49
2024-04-06T11:34:00.955Z,1005.44
2024-04-06T11:35:01.532Z,1005.42
2024-04-06T11:36:02.111Z,1005.45
2024-04-06T11:37:02.709Z,1005.41
2024-04-06T11:38:03.291Z,1005.42
2024-04-06T11:39:03.883Z,1005.37
2024-04-06T11:40:04.456Z,1005.41
2024-04-06T11:41:05.059Z,1005.44
2024-04-06T11:42:05.866Z,1005.39
2024-04-06T11:43:06.397Z,1005.44
2024-04-06T11:44:06.957Z,1005.37
2024-04-06T11:45:07.582Z,1005.45
2024-04-06T11:46:08.145Z,1005.40
2024-04-06T11:47:08.715Z,1005.32
2024-04-06T11:48:09.284Z,1005.48
2024-04-06T11:49:09.857Z,1005.39
2024-04-06T11:50:10.493Z,1005.45
2024-04-06T11:51:11.069Z,1005.41
2024-04-06T11:52:11.657Z,1005.39
2024-04-06T11:53:12.256Z,1005.42
2024-04-06T11:54:12.821Z,1005.37
2024-04-06T11:55:13.419Z,1005.34
2024-04-06T11:56:13.973Z,1005.31
2024-04-06T11:57:14.644Z,1005.35
2024-04-06T11:58:15.331Z,1005.28
2024-04-06T11:59:15.883Z,1005.26
2024-04-06T12:00:18.672Z,1005.32
2024-04-06T12:01:17.047Z,1005.25
2024-04-06T12:02:17.656Z,1005.26
2024-04-06T12:03:18.236Z,1005.26
2024-04-06T12:04:18.839Z,1005.28
2024-04-06T12:05:19.425Z,1005.28
2024-04-06T12:06:20.427Z,1005.31
2024-04-06T12:07:20.991Z,1005.31
2024-04-06T12:08:21.663Z,1005.32
2024-04-06T12:09:22.224Z,1005.29
2024-04-06T12:10:22.911Z,1005.30
2024-04-06T12:11:23.401Z,1005.28
2024-04-06T12:12:23.966Z,1005.27
2024-04-06T12:13:24.606Z,1005.23
2024-04-06T12:14:25.178Z,1005.25
2024-04-06T12:15:25.760Z,1005.24
2024-04-06T12:16:26.357Z,1005.23
2024-04-06T12:17:26.937Z,1005.24
2024-04-06T12:18:27.499Z,1005.23